createdAt,value
2017-10-20T00:01:54.582Z,53.60
2017-10-20T00:04:22.188Z,53.50
2017-10-20T00:06:49.710Z,53.70
2017-10-20T00:09:17.977Z,53.60
2017-10-20T00:11:46.268Z,53.60
2017-10-20T00:14:14.034Z,53.50
2017-10-20T00:16:41.552Z,53.50
2017-10-20T00:19:09.052Z,53.60
2017-10-20T00:21:36.600Z,53.60
2017-10-20T00:24:04.273Z,53.60
2017-10-20T00:26:31.923Z,53.60
2017-10-20T00:28:59.583Z,53.50
2017-10-20T00:31:27.083Z,53.50
2017-10-20T00:33:54.579Z,53.50
2017-10-20T00:36:22.247Z,53.40
2017-10-20T00:38:49.806Z,53.60
2017-10-20T00:41:17.482Z,53.60
2017-10-20T00:43:44.988Z,53.50
2017-10-20T00:46:12.488Z,53.50
2017-10-20T00:48:40.047Z,53.50
2017-10-20T00:51:07.671Z,53.50
2017-10-20T00:53:35.196Z,53.40
2017-10-20T00:56:02.696Z,53.50
2017-10-20T00:58:30.221Z,53.50
2017-10-20T01:00:57.936Z,53.40
2017-10-20T01:03:25.471Z,53.40
2017-10-20T01:05:52.974Z,53.50
2017-10-20T01:08:20.484Z,53.40
2017-10-20T01:10:48.125Z,53.50
2017-10-20T01:13:15.808Z,53.40
2017-10-20T01:15:43.300Z,53.30
2017-10-20T01:18:10.801Z,53.30
2017-10-20T01:20:38.311Z,53.30
2017-10-20T01:23:05.812Z,53.30
2017-10-20T01:25:33.343Z,53.30
2017-10-20T01:28:00.852Z,53.20
2017-10-20T01:30:28.346Z,53.20
2017-10-20T01:32:55.854Z,53.20
2017-10-20T01:35:23.376Z,53.30
2017-10-20T01:37:51.643Z,53.40
2017-10-20T01:40:19.936Z,53.30
2017-10-20T01:42:47.500Z,53.90
2017-10-20T01:45:15.012Z,53.40
2017-10-20T01:47:42.512Z,53.40
2017-10-20T01:50:10.308Z,53.30
2017-10-20T01:52:37.815Z,53.20
2017-10-20T01:55:05.319Z,53.20
2017-10-20T01:57:32.816Z,53.20
2017-10-20T02:00:00.323Z,53.10
2017-10-20T02:02:27.836Z,53.10
2017-10-20T02:04:55.332Z,53.20
2017-10-20T02:07:22.848Z,53.20
2017-10-20T02:09:50.360Z,53.20
2017-10-20T02:12:18.875Z,53.20
2017-10-20T02:14:47.136Z,53.20
2017-10-20T02:17:15.544Z,53.30
2017-10-20T02:19:43.042Z,53.20
2017-10-20T02:22:10.564Z,53.20
2017-10-20T02:24:38.078Z,53.30
2017-10-20T02:27:05.751Z,53.20
2017-10-20T02:29:33.243Z,53.20
2017-10-20T02:32:00.745Z,53.10
2017-10-20T02:34:29.031Z,53.20
2017-10-20T02:36:57.305Z,53.10
2017-10-20T02:39:25.582Z,53.20
2017-10-20T02:41:53.852Z,53.20
2017-10-20T02:44:22.111Z,53.20
2017-10-20T02:46:50.379Z,53.70
2017-10-20T02:49:17.898Z,53.20
2017-10-20T02:51:45.416Z,53.10
2017-10-20T02:54:12.921Z,53.30
2017-10-20T02:56:40.550Z,53.20
2017-10-20T02:59:08.075Z,53.60
2017-10-20T03:01:36.467Z,53.70
2017-10-20T03:04:03.995Z,53.60
2017-10-20T03:06:32.270Z,53.70
2017-10-20T03:09:00.536Z,53.50
2017-10-20T03:14:49.249Z,53.60
2017-10-20T03:17:16.904Z,53.40
2017-10-20T03:19:44.550Z,53.40
2017-10-20T03:22:12.051Z,53.50
2017-10-20T03:24:39.655Z,53.40
2017-10-20T03:27:07.291Z,53.50
2017-10-20T03:29:34.987Z,53.40
2017-10-20T03:32:02.478Z,53.50
2017-10-20T03:34:30.098Z,53.40
2017-10-20T03:36:57.591Z,53.40
2017-10-20T03:39:25.095Z,53.20
2017-10-20T03:41:53.351Z,53.30
2017-10-20T03:44:21.751Z,53.90
2017-10-20T03:46:49.411Z,53.30
2017-10-20T03:49:16.959Z,53.40
2017-10-20T03:51:44.538Z,53.10
2017-10-20T03:54:12.027Z,53.10
2017-10-20T03:56:39.549Z,53.20
2017-10-20T03:59:07.038Z,53.00
2017-10-20T04:01:34.607Z,53.00
2017-10-20T04:04:02.100Z,52.90
2017-10-20T04:06:29.687Z,53.00
2017-10-20T04:08:57.178Z,52.90
2017-10-20T04:11:25.443Z,52.80
2017-10-20T04:13:52.939Z,52.80
2017-10-20T04:16:20.440Z,52.80
2017-10-20T04:18:47.971Z,52.70
2017-10-20T04:21:15.467Z,52.70
2017-10-20T04:23:43.730Z,52.80
2017-10-20T04:26:11.222Z,52.80
2017-10-20T04:28:39.492Z,52.70
2017-10-20T04:31:07.767Z,52.80
2017-10-20T04:33:36.156Z,52.70
2017-10-20T04:36:03.819Z,52.70
2017-10-20T04:38:31.480Z,52.70
2017-10-20T04:40:58.982Z,52.70
2017-10-20T04:43:26.590Z,52.80
2017-10-20T04:45:54.087Z,52.70
2017-10-20T04:48:21.714Z,52.60
2017-10-20T04:50:49.212Z,52.60
2017-10-20T04:53:17.483Z,52.60
2017-10-20T04:55:46.932Z,52.70
2017-10-20T04:58:14.423Z,52.70
2017-10-20T05:00:41.919Z,52.80
2017-10-20T05:03:10.191Z,52.70
2017-10-20T05:05:38.460Z,52.60
2017-10-20T05:08:06.854Z,52.60
2017-10-20T05:10:34.357Z,52.60
2017-10-20T05:13:01.959Z,52.50
2017-10-20T05:15:29.635Z,52.60
2017-10-20T05:17:57.141Z,52.60
2017-10-20T05:20:24.669Z,52.50
2017-10-20T05:22:52.399Z,52.50
2017-10-20T05:25:19.924Z,52.60
2017-10-20T05:27:48.183Z,52.70
2017-10-20T05:30:16.467Z,53.60
2017-10-20T05:32:44.895Z,54.50
2017-10-20T05:35:12.559Z,54.40
2017-10-20T05:37:40.199Z,54.70
2017-10-20T05:40:07.690Z,55.00
2017-10-20T05:42:35.235Z,54.80
2017-10-20T05:45:02.768Z,54.60
2017-10-20T05:47:30.427Z,54.40
2017-10-20T05:49:57.942Z,54.30
2017-10-20T05:52:26.207Z,54.30
2017-10-20T05:54:53.807Z,54.30
2017-10-20T05:57:21.306Z,54.20
2017-10-20T05:59:48.802Z,54.10
2017-10-20T06:02:17.072Z,54.00
2017-10-20T06:04:45.471Z,49.60
2017-10-20T06:07:12.984Z,49.50
2017-10-20T06:09:41.409Z,49.70
2017-10-20T06:12:08.935Z,49.70
2017-10-20T06:14:37.203Z,48.20
2017-10-20T06:17:05.615Z,52.70
2017-10-20T06:19:33.114Z,52.70
2017-10-20T06:22:00.648Z,52.80
2017-10-20T06:24:28.203Z,52.70
2017-10-20T06:26:55.828Z,52.60
2017-10-20T06:29:23.491Z,51.10
2017-10-20T06:31:51.002Z,52.30
2017-10-20T06:34:18.499Z,52.50
2017-10-20T06:36:45.995Z,52.50
2017-10-20T06:39:13.531Z,53.00
2017-10-20T06:41:41.041Z,53.80
2017-10-20T06:44:09.451Z,55.00
2017-10-20T06:46:36.947Z,55.00
2017-10-20T06:49:04.451Z,55.30
2017-10-20T06:51:32.060Z,55.40
2017-10-20T06:53:59.771Z,55.40
2017-10-20T06:56:27.271Z,55.40
2017-10-20T06:58:54.894Z,55.40
2017-10-20T07:01:22.391Z,55.50
2017-10-20T07:03:50.003Z,55.60
2017-10-20T07:06:17.515Z,55.40
2017-10-20T07:08:45.918Z,55.50
2017-10-20T07:11:13.432Z,55.50
2017-10-20T07:13:41.523Z,55.40
2017-10-20T07:16:09.927Z,55.50
2017-10-20T07:18:39.912Z,55.40
2017-10-20T07:21:08.176Z,55.50
2017-10-20T07:23:36.439Z,55.60
2017-10-20T07:26:04.044Z,55.50
2017-10-20T07:28:31.568Z,55.60
2017-10-20T07:30:59.289Z,55.70
2017-10-20T07:33:26.827Z,55.60
2017-10-20T07:35:54.474Z,55.70
2017-10-20T07:38:22.157Z,55.80
2017-10-20T07:40:49.666Z,55.70
2017-10-20T07:43:17.239Z,55.80
2017-10-20T07:45:44.736Z,55.60
2017-10-20T07:48:12.366Z,55.80
2017-10-20T07:50:40.019Z,55.80
2017-10-20T07:53:07.700Z,55.80
2017-10-20T07:55:35.327Z,55.90
2017-10-20T07:58:02.834Z,55.80
2017-10-20T08:00:30.443Z,55.80
2017-10-20T08:02:57.947Z,55.70
2017-10-20T08:05:25.568Z,55.80
2017-10-20T08:07:53.067Z,55.70
2017-10-20T08:10:20.567Z,55.80
2017-10-20T08:12:48.338Z,55.80
2017-10-20T08:15:15.834Z,55.80
2017-10-20T08:17:43.434Z,55.80
2017-10-20T08:20:10.927Z,55.80
2017-10-20T08:22:38.435Z,55.80
2017-10-20T08:25:06.823Z,56.40
2017-10-20T08:27:34.496Z,55.80
2017-10-20T08:30:01.999Z,55.80
2017-10-20T08:32:30.278Z,55.80
2017-10-20T08:34:58.642Z,55.90
2017-10-20T08:37:27.662Z,55.80
2017-10-20T08:39:55.339Z,55.80
2017-10-20T08:42:23.306Z,56.00
2017-10-20T08:44:50.891Z,55.90
2017-10-20T08:47:18.416Z,55.90
2017-10-20T08:49:45.907Z,55.90
2017-10-20T08:52:13.956Z,56.00
2017-10-20T08:54:41.600Z,56.00
2017-10-20T08:57:09.254Z,55.90
2017-10-20T08:59:36.759Z,56.00
2017-10-20T09:02:04.257Z,56.00
2017-10-20T09:04:31.755Z,56.00
2017-10-20T09:06:59.276Z,56.00
2017-10-20T09:09:26.775Z,56.10
2017-10-20T09:11:54.275Z,56.00
2017-10-20T09:14:22.544Z,56.10
2017-10-20T09:16:50.808Z,56.10
2017-10-20T09:19:19.072Z,56.10
2017-10-20T09:21:46.575Z,56.10
2017-10-20T09:24:14.139Z,56.20
2017-10-20T09:26:41.646Z,56.20
2017-10-20T09:29:09.939Z,56.10
2017-10-20T09:31:37.523Z,56.10
2017-10-20T09:34:05.159Z,56.10
2017-10-20T09:36:32.655Z,56.20
2017-10-20T09:39:00.164Z,56.20
2017-10-20T09:41:27.759Z,56.20
2017-10-20T09:43:55.263Z,56.20
2017-10-20T09:46:23.547Z,56.20
2017-10-20T09:48:51.112Z,56.20
2017-10-20T09:51:18.875Z,56.20
2017-10-20T09:53:46.639Z,56.30
2017-10-20T09:56:14.147Z,56.30
2017-10-20T09:58:41.648Z,56.20
2017-10-20T10:01:09.402Z,56.20
2017-10-20T10:03:36.903Z,56.10
2017-10-20T10:06:04.492Z,56.20
2017-10-20T10:08:31.987Z,56.10
2017-10-20T10:10:59.539Z,56.20
2017-10-20T10:13:27.108Z,56.20
2017-10-20T10:15:54.622Z,56.20
2017-10-20T10:18:22.911Z,56.20
2017-10-20T10:20:50.503Z,56.20
2017-10-20T10:23:18.028Z,56.20
2017-10-20T10:25:45.527Z,56.20
2017-10-20T10:28:13.040Z,56.10
2017-10-20T10:30:40.535Z,56.20
2017-10-20T10:33:08.163Z,56.00
2017-10-20T10:35:35.823Z,56.20
2017-10-20T10:38:03.352Z,56.10
2017-10-20T10:40:31.659Z,56.20
2017-10-20T10:42:59.231Z,56.10
2017-10-20T10:45:26.854Z,56.20
2017-10-20T10:47:54.371Z,56.10
2017-10-20T10:50:22.631Z,56.10
2017-10-20T10:52:50.123Z,56.00
2017-10-20T10:55:18.518Z,56.10
2017-10-20T10:57:46.236Z,56.10
2017-10-20T11:00:13.751Z,56.00
2017-10-20T11:02:41.247Z,55.90
2017-10-20T11:05:08.770Z,56.00
2017-10-20T11:07:48.080Z,56.10
2017-10-20T11:10:28.544Z,56.00
2017-10-20T11:13:01.491Z,56.00
2017-10-20T11:15:29.911Z,56.00
2017-10-20T11:17:57.549Z,56.00
2017-10-20T11:20:25.072Z,56.00
2017-10-20T11:22:53.351Z,56.10
2017-10-20T11:25:20.876Z,56.10
2017-10-20T11:27:48.417Z,56.00
2017-10-20T11:30:15.931Z,56.00
2017-10-20T11:32:44.198Z,55.90
2017-10-20T11:35:12.498Z,55.80
2017-10-20T11:37:40.028Z,55.80
2017-10-20T11:40:07.524Z,55.90
2017-10-20T11:42:35.031Z,55.90
2017-10-20T11:45:02.639Z,55.80
2017-10-20T11:47:30.165Z,55.90
2017-10-20T11:49:57.933Z,55.80
2017-10-20T11:52:25.475Z,55.90
2017-10-20T11:54:53.739Z,55.80
2017-10-20T11:57:22.022Z,55.80
2017-10-20T11:59:49.590Z,55.80
2017-10-20T12:02:17.112Z,55.60
2017-10-20T12:04:44.613Z,55.50
2017-10-20T12:07:12.198Z,55.70
2017-10-20T12:09:39.697Z,55.80
2017-10-20T12:12:07.268Z,55.80
2017-10-20T12:14:34.940Z,55.80
2017-10-20T12:17:02.444Z,55.80
2017-10-20T12:19:30.036Z,55.80
2017-10-20T12:21:57.541Z,55.70
2017-10-20T12:24:25.159Z,55.70
2017-10-20T12:26:52.811Z,56.20
2017-10-20T12:29:20.477Z,55.80
2017-10-20T12:31:47.982Z,56.20
2017-10-20T12:34:15.499Z,55.60
2017-10-20T12:36:43.060Z,55.70
2017-10-20T12:39:10.587Z,55.70
2017-10-20T12:41:38.147Z,55.60
2017-10-20T12:44:05.681Z,55.70
2017-10-20T12:46:34.088Z,55.70
2017-10-20T12:49:01.592Z,55.70
2017-10-20T12:51:29.858Z,55.70
2017-10-20T12:53:58.297Z,55.40
2017-10-20T12:56:25.800Z,55.40
2017-10-20T12:58:53.399Z,55.40
2017-10-20T13:01:20.904Z,55.60
2017-10-20T13:03:48.511Z,55.60
2017-10-20T13:06:16.027Z,55.50
2017-10-20T13:08:44.449Z,55.40
2017-10-20T13:11:11.967Z,55.40
2017-10-20T13:13:40.238Z,55.60
2017-10-20T13:16:08.519Z,55.50
2017-10-20T13:18:37.019Z,55.70
2017-10-20T13:21:04.780Z,55.60
2017-10-20T13:23:32.482Z,55.60
2017-10-20T13:26:00.025Z,55.40
2017-10-20T13:28:27.519Z,55.40
2017-10-20T13:30:56.521Z,55.40
2017-10-20T13:33:24.793Z,55.40
2017-10-20T13:35:53.063Z,55.40
2017-10-20T13:38:21.322Z,55.50
2017-10-20T13:40:48.826Z,55.50
2017-10-20T13:43:16.388Z,55.40
2017-10-20T13:45:43.894Z,55.50
2017-10-20T13:48:11.577Z,55.50
2017-10-20T13:50:39.078Z,55.40
2017-10-20T13:53:06.640Z,55.40
2017-10-20T13:55:34.153Z,55.40
2017-10-20T13:58:01.668Z,55.50
2017-10-20T14:00:29.187Z,55.30
2017-10-20T14:02:56.835Z,55.30
2017-10-20T14:05:24.360Z,55.10
2017-10-20T14:07:52.703Z,55.00
2017-10-20T14:10:20.199Z,54.90
2017-10-20T14:12:47.695Z,54.90
2017-10-20T14:15:15.325Z,54.80
2017-10-20T14:17:42.947Z,54.70
2017-10-20T14:20:10.453Z,54.50
2017-10-20T14:22:37.968Z,54.40
2017-10-20T14:25:06.243Z,54.10
2017-10-20T14:27:33.764Z,54.10
2017-10-20T14:30:01.581Z,54.10
2017-10-20T14:32:29.093Z,54.10
2017-10-20T14:34:56.620Z,54.00
2017-10-20T14:37:24.263Z,54.00
2017-10-20T14:39:51.908Z,53.80
2017-10-20T14:42:19.412Z,53.50
2017-10-20T14:44:46.941Z,53.50
2017-10-20T14:47:14.455Z,53.60
2017-10-20T14:49:42.146Z,53.60
2017-10-20T14:52:09.782Z,53.40
2017-10-20T14:54:37.673Z,53.40
2017-10-20T14:57:05.215Z,53.30
2017-10-20T14:59:32.978Z,53.70
2017-10-20T15:02:00.510Z,53.10
2017-10-20T15:04:28.786Z,53.10
2017-10-20T15:06:57.069Z,53.00
2017-10-20T15:09:24.575Z,53.00
2017-10-20T15:11:52.099Z,53.00
2017-10-20T15:14:19.702Z,52.80
2017-10-20T15:16:48.936Z,52.60
2017-10-20T15:19:16.431Z,52.60
2017-10-20T15:21:43.988Z,52.60
2017-10-20T15:24:11.489Z,52.60
2017-10-20T15:26:39.881Z,52.10
2017-10-20T15:29:07.487Z,52.10
2017-10-20T15:31:36.495Z,48.50
2017-10-20T15:34:03.998Z,48.50
2017-10-20T15:36:31.495Z,47.70
2017-10-20T15:38:59.847Z,51.90
2017-10-20T15:41:27.351Z,51.90
2017-10-20T15:43:55.635Z,52.00
2017-10-20T15:46:23.138Z,51.90
2017-10-20T15:48:50.691Z,51.60
2017-10-20T15:51:18.311Z,51.60
2017-10-20T15:53:45.843Z,51.30
2017-10-20T15:56:14.513Z,51.20
2017-10-20T15:58:42.939Z,51.10
2017-10-20T16:01:10.435Z,51.10
2017-10-20T16:03:38.463Z,51.00
2017-10-20T16:06:06.103Z,50.90
2017-10-20T16:08:34.494Z,50.90
2017-10-20T16:11:02.002Z,50.90
2017-10-20T16:13:29.519Z,50.80
2017-10-20T16:15:57.172Z,50.70
2017-10-20T16:18:24.667Z,50.80
2017-10-20T16:20:52.952Z,50.80
2017-10-20T16:23:21.219Z,50.90
2017-10-20T16:25:49.019Z,50.90
2017-10-20T16:28:16.671Z,50.90
2017-10-20T16:30:44.187Z,51.10
2017-10-20T16:33:12.606Z,51.00
2017-10-20T16:35:40.123Z,51.00
2017-10-20T16:38:08.387Z,51.00
2017-10-20T16:40:35.923Z,51.00
2017-10-20T16:43:03.467Z,50.90
2017-10-20T16:45:31.047Z,50.90
2017-10-20T16:47:58.535Z,51.00
2017-10-20T16:50:26.227Z,50.90
2017-10-20T16:52:53.732Z,50.90
2017-10-20T16:55:21.275Z,51.10
2017-10-20T16:57:48.991Z,51.00
2017-10-20T17:00:16.648Z,51.10
2017-10-20T17:02:44.205Z,51.00
2017-10-20T17:05:11.970Z,51.00
2017-10-20T17:07:39.603Z,51.00
2017-10-20T17:10:07.099Z,51.10
2017-10-20T17:12:34.624Z,51.10
2017-10-20T17:15:02.127Z,51.10
2017-10-20T17:17:29.687Z,51.20
2017-10-20T17:19:57.276Z,51.30
2017-10-20T17:22:24.821Z,51.30
2017-10-20T17:24:53.079Z,51.30
2017-10-20T17:27:20.700Z,51.30
2017-10-20T17:29:48.214Z,51.40
2017-10-20T17:32:16.503Z,51.50
2017-10-20T17:34:44.893Z,51.40
2017-10-20T17:37:12.435Z,51.40
2017-10-20T17:39:40.707Z,51.20
2017-10-20T17:42:08.995Z,51.40
2017-10-20T17:44:36.550Z,51.40
2017-10-20T17:47:04.221Z,51.50
2017-10-20T17:49:31.751Z,51.50
2017-10-20T17:52:00.152Z,54.10
2017-10-20T17:54:27.677Z,54.10
2017-10-20T17:56:55.950Z,54.30
2017-10-20T17:59:24.227Z,54.30
2017-10-20T18:01:52.513Z,54.50
2017-10-20T18:04:20.064Z,54.50
2017-10-20T18:06:47.564Z,54.90
2017-10-20T18:09:15.083Z,54.80
2017-10-20T18:11:42.703Z,54.90
2017-10-20T18:14:10.309Z,55.00
2017-10-20T18:16:37.808Z,55.00
2017-10-20T18:19:05.433Z,54.90
2017-10-20T18:21:32.927Z,55.00
2017-10-20T18:24:00.423Z,55.10
2017-10-20T18:26:27.943Z,55.00
2017-10-20T18:28:55.639Z,55.10
2017-10-20T18:31:23.166Z,55.10
2017-10-20T18:33:51.569Z,55.00
2017-10-20T18:36:19.231Z,55.00
2017-10-20T18:38:46.743Z,55.00
2017-10-20T18:41:15.031Z,54.90
2017-10-20T18:43:43.298Z,54.90
2017-10-20T18:46:11.864Z,55.00
2017-10-20T18:48:39.368Z,54.80
2017-10-20T18:51:07.023Z,54.90
2017-10-20T18:53:34.529Z,54.90
2017-10-20T18:56:02.971Z,54.90
2017-10-20T18:58:30.652Z,54.90
2017-10-20T19:00:58.146Z,54.70
2017-10-20T19:03:26.456Z,54.80
2017-10-20T19:05:53.982Z,54.80
2017-10-20T19:08:21.515Z,54.40
2017-10-20T19:10:49.130Z,54.80
2017-10-20T19:13:16.654Z,54.10
2017-10-20T19:15:44.915Z,53.70
2017-10-20T19:18:13.216Z,53.50
2017-10-20T19:20:40.716Z,53.50
2017-10-20T19:23:08.443Z,53.50
2017-10-20T19:25:36.098Z,53.20
2017-10-20T19:28:03.756Z,53.20
2017-10-20T19:30:31.467Z,53.30
2017-10-20T19:32:59.755Z,53.50
2017-10-20T19:35:28.154Z,54.00
2017-10-20T19:37:55.817Z,54.00
2017-10-20T19:40:23.334Z,54.70
2017-10-20T19:42:50.937Z,54.30
2017-10-20T19:45:18.430Z,54.20
2017-10-20T19:47:45.943Z,54.70
2017-10-20T19:50:13.699Z,54.80
2017-10-20T19:52:41.219Z,54.80
2017-10-20T19:55:09.479Z,54.40
2017-10-20T19:57:37.068Z,54.80
2017-10-20T20:00:04.743Z,54.40
2017-10-20T20:02:32.483Z,53.70
2017-10-20T20:05:00.756Z,55.00
2017-10-20T20:07:29.038Z,54.60
2017-10-20T20:09:57.439Z,54.70
2017-10-20T20:12:24.958Z,54.70
2017-10-20T20:14:53.767Z,54.40
2017-10-20T20:17:21.427Z,54.40
2017-10-20T20:19:48.939Z,54.40
2017-10-20T20:22:16.476Z,54.40
2017-10-20T20:24:43.983Z,54.50
2017-10-20T20:27:11.603Z,54.50
2017-10-20T20:29:39.107Z,54.40
2017-10-20T20:32:07.094Z,54.50
2017-10-20T20:34:34.644Z,54.40
2017-10-20T20:37:02.140Z,54.10
2017-10-20T20:39:29.635Z,54.00
2017-10-20T20:41:57.140Z,54.00
2017-10-20T20:44:24.675Z,53.90
2017-10-20T20:46:52.235Z,53.90
2017-10-20T20:49:19.759Z,53.80
2017-10-20T20:51:47.267Z,53.70
2017-10-20T20:54:14.775Z,53.50
2017-10-20T20:56:42.343Z,54.00
2017-10-20T20:59:09.843Z,53.40
2017-10-20T21:01:38.122Z,53.40
2017-10-20T21:04:06.388Z,53.30
2017-10-20T21:06:33.983Z,53.30
2017-10-20T21:09:01.519Z,53.30
2017-10-20T21:11:29.994Z,53.30
2017-10-20T21:13:58.395Z,53.40
2017-10-20T21:16:26.060Z,53.30
2017-10-20T21:18:54.352Z,53.30
2017-10-20T21:21:21.863Z,53.30
2017-10-20T21:23:49.390Z,53.20
2017-10-20T21:26:16.876Z,53.40
2017-10-20T21:28:44.375Z,53.30
2017-10-20T21:31:12.090Z,53.30
2017-10-20T21:33:40.493Z,53.20
2017-10-20T21:36:08.139Z,53.10
2017-10-20T21:38:35.663Z,53.20
2017-10-20T21:41:03.256Z,53.20
2017-10-20T21:43:30.767Z,52.90
2017-10-20T21:45:58.275Z,53.00
2017-10-20T21:48:26.044Z,53.00
2017-10-20T21:50:54.504Z,53.00
2017-10-20T21:53:22.027Z,53.10
2017-10-20T21:55:49.520Z,53.10
2017-10-20T21:58:17.043Z,53.60
2017-10-20T22:00:44.739Z,52.90
2017-10-20T22:03:12.299Z,52.90
2017-10-20T22:05:39.871Z,53.00
2017-10-20T22:08:07.392Z,53.10
2017-10-20T22:10:34.982Z,53.10
2017-10-20T22:13:02.503Z,53.10
2017-10-20T22:15:30.882Z,53.00
2017-10-20T22:17:58.543Z,53.00
2017-10-20T22:20:26.039Z,53.00
2017-10-20T22:22:53.569Z,53.10
2017-10-20T22:25:21.129Z,53.00
2017-10-20T22:27:48.640Z,53.00
2017-10-20T22:30:17.047Z,53.10
2017-10-20T22:32:44.575Z,53.00
2017-10-20T22:35:12.951Z,53.00
2017-10-20T22:37:40.450Z,52.90
2017-10-20T22:40:07.947Z,52.90
2017-10-20T22:42:35.539Z,52.80
2017-10-20T22:45:03.195Z,52.70
2017-10-20T22:47:30.687Z,52.80
2017-10-20T22:49:58.315Z,52.80
2017-10-20T22:52:25.974Z,52.70
2017-10-20T22:54:53.644Z,52.80
2017-10-20T22:57:21.302Z,52.70
2017-10-20T22:59:48.797Z,52.70
2017-10-20T23:02:16.398Z,52.60
2017-10-20T23:04:44.064Z,52.70
2017-10-20T23:07:11.576Z,52.70
2017-10-20T23:09:39.857Z,52.60
2017-10-20T23:12:08.268Z,52.60
2017-10-20T23:14:35.933Z,53.20
2017-10-20T23:17:03.583Z,52.60
2017-10-20T23:19:31.083Z,52.60
2017-10-20T23:21:58.583Z,52.70
2017-10-20T23:24:26.158Z,52.60
2017-10-20T23:26:53.768Z,52.60
2017-10-20T23:29:22.907Z,52.70
2017-10-20T23:31:50.560Z,52.80
2017-10-20T23:34:18.058Z,52.70
2017-10-20T23:36:45.560Z,52.80
2017-10-20T23:39:13.151Z,52.70
2017-10-20T23:41:40.680Z,52.80
2017-10-20T23:44:08.236Z,52.70
2017-10-20T23:46:35.755Z,52.70
2017-10-20T23:49:03.407Z,52.70
2017-10-20T23:51:30.907Z,52.70
2017-10-20T23:53:58.428Z,52.80
2017-10-20T23:56:25.939Z,52.70
2017-10-20T23:58:54.370Z,52.70
